Terminal Aerodrome Forecast
Issued by NWS

Home | Current Version | Previous Version | Text Only | Print | Product List | Glossary On
Versions: 1 2 3 4 5 6 7 8 9 10 11 12 13 14 15 16 17 18 19 20 21 22 23 24 25 26 27 28
000
FTUS43 KDMX 220520
TAFFOD
TAF
KFOD 220520Z 2206/2306 20006KT P6SM SCT060 BKN150
     FM220700 VRB03KT 5SM BR FEW010 BKN060
      TEMPO 2210/2213 2SM BR SCT010 BKN030
     FM221300 04006KT P6SM SCT015 BKN110
     FM230000 07005KT P6SM SCT150=

USA.gov is the U.S. government's official web portal to all federal, state and local government web resources and services.